sensor_id;sensor_type;location;lat;lon;timestamp;temperature;humidity
25332;DHT22;13284;52.748;13.452;2023-07-22T00:01:37;13.60;99.90
25332;DHT22;13284;52.748;13.452;2023-07-22T00:04:03;13.60;99.90
25332;DHT22;13284;52.748;13.452;2023-07-22T00:06:28;13.60;99.90
25332;DHT22;13284;52.748;13.452;2023-07-22T00:08:54;13.70;99.90
25332;DHT22;13284;52.748;13.452;2023-07-22T00:11:19;13.80;99.90
25332;DHT22;13284;52.748;13.452;2023-07-22T00:13:45;13.80;99.90
25332;DHT22;13284;52.748;13.452;2023-07-22T00:16:11;13.80;99.90
25332;DHT22;13284;52.748;13.452;2023-07-22T00:18:36;13.90;99.90
25332;DHT22;13284;52.748;13.452;2023-07-22T00:21:02;13.80;99.90
25332;DHT22;13284;52.748;13.452;2023-07-22T00:23:27;13.80;99.90
25332;DHT22;13284;52.748;13.452;2023-07-22T00:25:53;13.80;99.90
25332;DHT22;13284;52.748;13.452;2023-07-22T00:28:18;13.80;99.90
25332;DHT22;13284;52.748;13.452;2023-07-22T00:30:44;13.90;99.90
25332;DHT22;13284;52.748;13.452;2023-07-22T00:33:09;13.80;99.90
25332;DHT22;13284;52.748;13.452;2023-07-22T00:35:35;13.90;99.90
25332;DHT22;13284;52.748;13.452;2023-07-22T00:38:01;13.90;99.90
25332;DHT22;13284;52.748;13.452;2023-07-22T00:40:27;13.90;99.90
25332;DHT22;13284;52.748;13.452;2023-07-22T00:42:53;13.90;99.90
25332;DHT22;13284;52.748;13.452;2023-07-22T00:45:18;13.80;99.90
25332;DHT22;13284;52.748;13.452;2023-07-22T00:47:45;13.80;99.90
25332;DHT22;13284;52.748;13.452;2023-07-22T00:50:11;13.70;99.90
25332;DHT22;13284;52.748;13.452;2023-07-22T00:52:38;13.70;99.90
25332;DHT22;13284;52.748;13.452;2023-07-22T00:55:04;13.70;99.90
25332;DHT22;13284;52.748;13.452;2023-07-22T00:57:31;13.80;99.90
25332;DHT22;13284;52.748;13.452;2023-07-22T00:59:56;13.70;99.90
25332;DHT22;13284;52.748;13.452;2023-07-22T01:02:22;13.70;99.90
25332;DHT22;13284;52.748;13.452;2023-07-22T01:04:49;13.70;99.90
25332;DHT22;13284;52.748;13.452;2023-07-22T01:07:15;13.70;99.90
25332;DHT22;13284;52.748;13.452;2023-07-22T01:09:42;13.70;99.90
25332;DHT22;13284;52.748;13.452;2023-07-22T01:12:08;13.70;99.90
25332;DHT22;13284;52.748;13.452;2023-07-22T01:14:38;13.70;99.90
25332;DHT22;13284;52.748;13.452;2023-07-22T01:17:06;13.70;99.90
25332;DHT22;13284;52.748;13.452;2023-07-22T01:19:32;13.80;99.90
25332;DHT22;13284;52.748;13.452;2023-07-22T01:22:07;13.80;99.90
25332;DHT22;13284;52.748;13.452;2023-07-22T01:24:33;13.70;99.90
25332;DHT22;13284;52.748;13.452;2023-07-22T01:26:59;13.80;99.90
25332;DHT22;13284;52.748;13.452;2023-07-22T01:29:25;13.70;99.90
25332;DHT22;13284;52.748;13.452;2023-07-22T01:31:53;13.80;99.90
25332;DHT22;13284;52.748;13.452;2023-07-22T01:34:20;13.70;99.90
25332;DHT22;13284;52.748;13.452;2023-07-22T01:36:47;13.70;99.90
25332;DHT22;13284;52.748;13.452;2023-07-22T01:39:13;13.70;99.90
25332;DHT22;13284;52.748;13.452;2023-07-22T01:41:39;13.70;99.90
25332;DHT22;13284;52.748;13.452;2023-07-22T01:44:05;13.70;99.90
25332;DHT22;13284;52.748;13.452;2023-07-22T01:46:30;13.70;99.90
25332;DHT22;13284;52.748;13.452;2023-07-22T01:48:56;13.70;99.90
25332;DHT22;13284;52.748;13.452;2023-07-22T01:51:22;13.70;99.90
25332;DHT22;13284;52.748;13.452;2023-07-22T01:53:48;13.70;99.90
25332;DHT22;13284;52.748;13.452;2023-07-22T01:56:14;13.70;99.90
25332;DHT22;13284;52.748;13.452;2023-07-22T01:58:41;13.70;99.90
25332;DHT22;13284;52.748;13.452;2023-07-22T02:01:07;13.70;99.90
25332;DHT22;13284;52.748;13.452;2023-07-22T02:03:33;13.80;99.90
25332;DHT22;13284;52.748;13.452;2023-07-22T02:06:02;13.80;99.90
25332;DHT22;13284;52.748;13.452;2023-07-22T02:08:28;13.70;99.90
25332;DHT22;13284;52.748;13.452;2023-07-22T02:10:54;13.70;99.90
25332;DHT22;13284;52.748;13.452;2023-07-22T02:13:19;13.70;99.90
25332;DHT22;13284;52.748;13.452;2023-07-22T02:15:46;13.70;99.90
25332;DHT22;13284;52.748;13.452;2023-07-22T02:18:13;13.70;99.90
25332;DHT22;13284;52.748;13.452;2023-07-22T02:20:38;13.70;99.90
25332;DHT22;13284;52.748;13.452;2023-07-22T02:23:04;13.70;99.90
25332;DHT22;13284;52.748;13.452;2023-07-22T02:25:29;13.70;99.90
25332;DHT22;13284;52.748;13.452;2023-07-22T02:27:55;13.60;99.90
25332;DHT22;13284;52.748;13.452;2023-07-22T02:30:20;13.60;99.90
25332;DHT22;13284;52.748;13.452;2023-07-22T02:32:46;13.60;99.90
25332;DHT22;13284;52.748;13.452;2023-07-22T02:35:11;13.60;99.90
25332;DHT22;13284;52.748;13.452;2023-07-22T02:37:38;13.50;99.90
25332;DHT22;13284;52.748;13.452;2023-07-22T02:40:04;13.50;99.90
25332;DHT22;13284;52.748;13.452;2023-07-22T02:42:39;13.60;99.90
25332;DHT22;13284;52.748;13.452;2023-07-22T02:45:05;13.50;99.90
25332;DHT22;13284;52.748;13.452;2023-07-22T02:47:33;13.60;99.90
25332;DHT22;13284;52.748;13.452;2023-07-22T02:49:59;13.50;99.90
25332;DHT22;13284;52.748;13.452;2023-07-22T02:52:25;13.60;99.90
25332;DHT22;13284;52.748;13.452;2023-07-22T02:55:05;13.60;99.90
25332;DHT22;13284;52.748;13.452;2023-07-22T02:57:31;13.60;99.90
25332;DHT22;13284;52.748;13.452;2023-07-22T02:59:57;13.60;99.90
25332;DHT22;13284;52.748;13.452;2023-07-22T03:02:22;13.60;99.90
25332;DHT22;13284;52.748;13.452;2023-07-22T03:04:48;13.60;99.90
25332;DHT22;13284;52.748;13.452;2023-07-22T03:07:13;13.70;99.90
25332;DHT22;13284;52.748;13.452;2023-07-22T03:09:39;13.60;99.90
25332;DHT22;13284;52.748;13.452;2023-07-22T03:12:04;13.70;99.90
25332;DHT22;13284;52.748;13.452;2023-07-22T03:14:30;13.70;99.90
25332;DHT22;13284;52.748;13.452;2023-07-22T03:17:03;13.70;99.90
25332;DHT22;13284;52.748;13.452;2023-07-22T03:19:31;13.70;99.90
25332;DHT22;13284;52.748;13.452;2023-07-22T03:21:56;13.70;99.90
25332;DHT22;13284;52.748;13.452;2023-07-22T03:24:22;13.60;99.90
25332;DHT22;13284;52.748;13.452;2023-07-22T03:26:47;13.60;99.90
25332;DHT22;13284;52.748;13.452;2023-07-22T03:29:13;13.60;99.90
25332;DHT22;13284;52.748;13.452;2023-07-22T03:31:38;13.60;99.90
25332;DHT22;13284;52.748;13.452;2023-07-22T03:34:04;13.50;99.90
25332;DHT22;13284;52.748;13.452;2023-07-22T03:36:30;13.50;99.90
25332;DHT22;13284;52.748;13.452;2023-07-22T03:38:58;13.50;99.90
25332;DHT22;13284;52.748;13.452;2023-07-22T03:41:25;13.50;99.90
25332;DHT22;13284;52.748;13.452;2023-07-22T03:43:50;13.50;99.90
25332;DHT22;13284;52.748;13.452;2023-07-22T03:46:16;13.50;99.90
25332;DHT22;13284;52.748;13.452;2023-07-22T03:48:41;13.50;99.90
25332;DHT22;13284;52.748;13.452;2023-07-22T03:51:07;13.40;99.90
25332;DHT22;13284;52.748;13.452;2023-07-22T03:53:32;13.40;99.90
25332;DHT22;13284;52.748;13.452;2023-07-22T03:55:58;13.40;99.90
25332;DHT22;13284;52.748;13.452;2023-07-22T03:58:23;13.30;99.90
25332;DHT22;13284;52.748;13.452;2023-07-22T04:00:49;13.30;99.90
25332;DHT22;13284;52.748;13.452;2023-07-22T04:03:15;13.30;99.90
25332;DHT22;13284;52.748;13.452;2023-07-22T04:05:40;13.30;99.90
25332;DHT22;13284;52.748;13.452;2023-07-22T04:08:06;13.30;99.90
25332;DHT22;13284;52.748;13.452;2023-07-22T04:10:31;13.20;99.90
25332;DHT22;13284;52.748;13.452;2023-07-22T04:12:57;13.20;99.90
25332;DHT22;13284;52.748;13.452;2023-07-22T04:15:22;13.20;99.90
25332;DHT22;13284;52.748;13.452;2023-07-22T04:17:48;13.20;99.90
25332;DHT22;13284;52.748;13.452;2023-07-22T04:20:14;13.20;99.90
25332;DHT22;13284;52.748;13.452;2023-07-22T04:22:41;13.20;99.90
25332;DHT22;13284;52.748;13.452;2023-07-22T04:25:07;13.20;99.90
25332;DHT22;13284;52.748;13.452;2023-07-22T04:27:32;13.20;99.90
25332;DHT22;13284;52.748;13.452;2023-07-22T04:29:58;13.20;99.90
25332;DHT22;13284;52.748;13.452;2023-07-22T04:32:23;13.20;99.90
25332;DHT22;13284;52.748;13.452;2023-07-22T04:34:49;13.30;99.90
25332;DHT22;13284;52.748;13.452;2023-07-22T04:37:14;13.40;99.90
25332;DHT22;13284;52.748;13.452;2023-07-22T04:39:42;13.40;99.90
25332;DHT22;13284;52.748;13.452;2023-07-22T04:42:08;13.50;99.90
25332;DHT22;13284;52.748;13.452;2023-07-22T04:44:33;13.40;99.90
25332;DHT22;13284;52.748;13.452;2023-07-22T04:46:59;13.50;99.90
25332;DHT22;13284;52.748;13.452;2023-07-22T04:49:25;13.50;99.90
25332;DHT22;13284;52.748;13.452;2023-07-22T04:51:51;13.60;99.90
25332;DHT22;13284;52.748;13.452;2023-07-22T04:54:17;13.70;99.90
25332;DHT22;13284;52.748;13.452;2023-07-22T04:56:43;13.80;99.90
25332;DHT22;13284;52.748;13.452;2023-07-22T04:59:09;13.90;99.90
25332;DHT22;13284;52.748;13.452;2023-07-22T05:01:35;13.90;99.90
25332;DHT22;13284;52.748;13.452;2023-07-22T05:04:00;14.00;99.90
25332;DHT22;13284;52.748;13.452;2023-07-22T05:06:28;14.00;99.90
25332;DHT22;13284;52.748;13.452;2023-07-22T05:08:53;14.10;99.90
25332;DHT22;13284;52.748;13.452;2023-07-22T05:11:19;14.20;99.90
25332;DHT22;13284;52.748;13.452;2023-07-22T05:13:44;14.20;99.90
25332;DHT22;13284;52.748;13.452;2023-07-22T05:16:10;14.20;99.90
25332;DHT22;13284;52.748;13.452;2023-07-22T05:18:35;14.30;99.90
25332;DHT22;13284;52.748;13.452;2023-07-22T05:21:01;14.30;99.90
25332;DHT22;13284;52.748;13.452;2023-07-22T05:23:27;14.40;99.90
25332;DHT22;13284;52.748;13.452;2023-07-22T05:25:53;14.50;99.90
25332;DHT22;13284;52.748;13.452;2023-07-22T05:28:19;14.50;99.90
25332;DHT22;13284;52.748;13.452;2023-07-22T05:30:45;14.50;99.90
25332;DHT22;13284;52.748;13.452;2023-07-22T05:33:11;14.50;99.90
25332;DHT22;13284;52.748;13.452;2023-07-22T05:35:36;14.60;99.90
25332;DHT22;13284;52.748;13.452;2023-07-22T05:38:02;14.70;99.90
25332;DHT22;13284;52.748;13.452;2023-07-22T05:40:29;14.80;99.90
25332;DHT22;13284;52.748;13.452;2023-07-22T05:42:55;14.90;99.90
25332;DHT22;13284;52.748;13.452;2023-07-22T05:45:21;14.90;99.90
25332;DHT22;13284;52.748;13.452;2023-07-22T05:47:47;14.80;99.90
25332;DHT22;13284;52.748;13.452;2023-07-22T05:50:13;14.80;99.90
25332;DHT22;13284;52.748;13.452;2023-07-22T05:52:39;14.70;99.90
25332;DHT22;13284;52.748;13.452;2023-07-22T05:55:05;14.70;99.90
25332;DHT22;13284;52.748;13.452;2023-07-22T05:57:31;14.80;99.90
25332;DHT22;13284;52.748;13.452;2023-07-22T05:59:56;14.90;99.90
25332;DHT22;13284;52.748;13.452;2023-07-22T06:02:22;14.90;99.90
25332;DHT22;13284;52.748;13.452;2023-07-22T06:04:47;15.10;99.90
25332;DHT22;13284;52.748;13.452;2023-07-22T06:07:13;14.90;99.90
25332;DHT22;13284;52.748;13.452;2023-07-22T06:09:39;15.10;99.90
25332;DHT22;13284;52.748;13.452;2023-07-22T06:12:04;15.40;99.90
25332;DHT22;13284;52.748;13.452;2023-07-22T06:14:30;15.40;99.90
25332;DHT22;13284;52.748;13.452;2023-07-22T06:16:55;15.20;99.90
25332;DHT22;13284;52.748;13.452;2023-07-22T06:19:21;15.40;99.90
25332;DHT22;13284;52.748;13.452;2023-07-22T06:21:49;15.40;99.90
25332;DHT22;13284;52.748;13.452;2023-07-22T06:24:14;15.50;99.90
25332;DHT22;13284;52.748;13.452;2023-07-22T06:26:40;15.50;99.90
25332;DHT22;13284;52.748;13.452;2023-07-22T06:29:05;15.50;99.90
25332;DHT22;13284;52.748;13.452;2023-07-22T06:31:30;15.60;99.90
25332;DHT22;13284;52.748;13.452;2023-07-22T06:33:59;15.60;99.90
25332;DHT22;13284;52.748;13.452;2023-07-22T06:36:25;15.60;99.90
25332;DHT22;13284;52.748;13.452;2023-07-22T06:38:51;15.60;99.90
25332;DHT22;13284;52.748;13.452;2023-07-22T06:41:16;15.60;99.90
25332;DHT22;13284;52.748;13.452;2023-07-22T06:43:43;15.80;99.90
25332;DHT22;13284;52.748;13.452;2023-07-22T06:46:08;15.80;99.90
25332;DHT22;13284;52.748;13.452;2023-07-22T06:48:34;15.90;99.90
25332;DHT22;13284;52.748;13.452;2023-07-22T06:50:59;15.90;99.90
25332;DHT22;13284;52.748;13.452;2023-07-22T06:53:25;15.90;99.90
25332;DHT22;13284;52.748;13.452;2023-07-22T06:55:51;15.90;99.90
25332;DHT22;13284;52.748;13.452;2023-07-22T06:58:20;16.10;99.90
25332;DHT22;13284;52.748;13.452;2023-07-22T07:00:47;16.10;99.90
25332;DHT22;13284;52.748;13.452;2023-07-22T07:03:13;16.10;99.90
25332;DHT22;13284;52.748;13.452;2023-07-22T07:05:38;16.20;99.90
25332;DHT22;13284;52.748;13.452;2023-07-22T07:08:07;16.30;99.90
25332;DHT22;13284;52.748;13.452;2023-07-22T07:10:37;16.30;99.90
25332;DHT22;13284;52.748;13.452;2023-07-22T07:13:03;16.30;99.90
25332;DHT22;13284;52.748;13.452;2023-07-22T07:15:28;16.20;99.90
25332;DHT22;13284;52.748;13.452;2023-07-22T07:17:54;16.20;99.90
25332;DHT22;13284;52.748;13.452;2023-07-22T07:20:20;16.40;99.90
25332;DHT22;13284;52.748;13.452;2023-07-22T07:22:45;16.60;99.90
25332;DHT22;13284;52.748;13.452;2023-07-22T07:25:11;16.60;99.90
25332;DHT22;13284;52.748;13.452;2023-07-22T07:27:37;16.50;99.90
25332;DHT22;13284;52.748;13.452;2023-07-22T07:30:02;16.60;99.90
25332;DHT22;13284;52.748;13.452;2023-07-22T07:32:28;16.70;99.90
25332;DHT22;13284;52.748;13.452;2023-07-22T07:34:53;16.70;99.90
25332;DHT22;13284;52.748;13.452;2023-07-22T07:37:19;16.70;99.90
25332;DHT22;13284;52.748;13.452;2023-07-22T07:39:44;16.50;99.90
25332;DHT22;13284;52.748;13.452;2023-07-22T07:42:11;16.60;99.90
25332;DHT22;13284;52.748;13.452;2023-07-22T07:44:37;16.70;99.90
25332;DHT22;13284;52.748;13.452;2023-07-22T07:47:02;16.80;99.90
25332;DHT22;13284;52.748;13.452;2023-07-22T07:49:28;17.10;99.90
25332;DHT22;13284;52.748;13.452;2023-07-22T07:51:53;17.00;99.90
25332;DHT22;13284;52.748;13.452;2023-07-22T07:54:19;16.90;99.90
25332;DHT22;13284;52.748;13.452;2023-07-22T07:56:44;17.00;99.90
25332;DHT22;13284;52.748;13.452;2023-07-22T07:59:10;17.10;99.90
25332;DHT22;13284;52.748;13.452;2023-07-22T08:01:36;17.00;99.90
25332;DHT22;13284;52.748;13.452;2023-07-22T08:04:07;16.80;99.90
25332;DHT22;13284;52.748;13.452;2023-07-22T08:06:33;17.10;99.90
25332;DHT22;13284;52.748;13.452;2023-07-22T08:08:58;17.20;99.90
25332;DHT22;13284;52.748;13.452;2023-07-22T08:11:24;17.30;99.90
25332;DHT22;13284;52.748;13.452;2023-07-22T08:13:49;17.40;99.90
25332;DHT22;13284;52.748;13.452;2023-07-22T08:16:17;17.70;99.90
25332;DHT22;13284;52.748;13.452;2023-07-22T08:18:43;17.70;99.90
25332;DHT22;13284;52.748;13.452;2023-07-22T08:21:09;17.80;99.90
25332;DHT22;13284;52.748;13.452;2023-07-22T08:23:36;17.50;99.90
25332;DHT22;13284;52.748;13.452;2023-07-22T08:26:02;17.60;99.90
25332;DHT22;13284;52.748;13.452;2023-07-22T08:28:31;17.80;99.90
25332;DHT22;13284;52.748;13.452;2023-07-22T08:30:57;18.40;99.90
25332;DHT22;13284;52.748;13.452;2023-07-22T08:33:23;18.50;99.90
25332;DHT22;13284;52.748;13.452;2023-07-22T08:35:51;18.40;99.90
25332;DHT22;13284;52.748;13.452;2023-07-22T08:38:16;18.70;99.90
25332;DHT22;13284;52.748;13.452;2023-07-22T08:40:42;18.70;99.90
25332;DHT22;13284;52.748;13.452;2023-07-22T08:43:10;18.50;99.90
25332;DHT22;13284;52.748;13.452;2023-07-22T08:45:37;18.50;99.90
25332;DHT22;13284;52.748;13.452;2023-07-22T08:48:05;18.50;99.90
25332;DHT22;13284;52.748;13.452;2023-07-22T08:50:41;18.20;99.90
25332;DHT22;13284;52.748;13.452;2023-07-22T08:53:07;17.80;99.90
25332;DHT22;13284;52.748;13.452;2023-07-22T08:55:34;18.30;99.90
25332;DHT22;13284;52.748;13.452;2023-07-22T08:58:00;19.00;99.90
25332;DHT22;13284;52.748;13.452;2023-07-22T09:00:26;19.60;99.90
25332;DHT22;13284;52.748;13.452;2023-07-22T09:02:52;19.30;99.90
25332;DHT22;13284;52.748;13.452;2023-07-22T09:05:18;19.30;99.90
25332;DHT22;13284;52.748;13.452;2023-07-22T09:07:44;19.30;99.90
25332;DHT22;13284;52.748;13.452;2023-07-22T09:10:11;19.30;99.90
25332;DHT22;13284;52.748;13.452;2023-07-22T09:12:38;19.70;99.90
25332;DHT22;13284;52.748;13.452;2023-07-22T09:15:14;19.60;99.90
25332;DHT22;13284;52.748;13.452;2023-07-22T09:17:41;19.00;99.90
25332;DHT22;13284;52.748;13.452;2023-07-22T09:20:07;18.60;99.90
25332;DHT22;13284;52.748;13.452;2023-07-22T09:22:33;18.70;99.90
25332;DHT22;13284;52.748;13.452;2023-07-22T09:25:25;19.60;99.90
25332;DHT22;13284;52.748;13.452;2023-07-22T09:27:58;19.90;99.90
25332;DHT22;13284;52.748;13.452;2023-07-22T09:30:24;20.40;99.90
25332;DHT22;13284;52.748;13.452;2023-07-22T09:33:01;20.40;99.90
25332;DHT22;13284;52.748;13.452;2023-07-22T09:35:29;20.90;99.90
25332;DHT22;13284;52.748;13.452;2023-07-22T09:37:55;20.60;99.90
25332;DHT22;13284;52.748;13.452;2023-07-22T09:40:24;19.90;99.90
25332;DHT22;13284;52.748;13.452;2023-07-22T09:42:52;19.50;99.90
25332;DHT22;13284;52.748;13.452;2023-07-22T09:45:19;19.40;99.90
25332;DHT22;13284;52.748;13.452;2023-07-22T09:47:49;20.20;99.90
25332;DHT22;13284;52.748;13.452;2023-07-22T09:50:20;20.70;99.90
25332;DHT22;13284;52.748;13.452;2023-07-22T09:52:50;20.30;99.90
25332;DHT22;13284;52.748;13.452;2023-07-22T09:55:17;19.70;99.90
25332;DHT22;13284;52.748;13.452;2023-07-22T09:57:46;19.60;99.90
25332;DHT22;13284;52.748;13.452;2023-07-22T10:00:13;19.60;99.90
25332;DHT22;13284;52.748;13.452;2023-07-22T10:02:41;19.70;99.90
25332;DHT22;13284;52.748;13.452;2023-07-22T10:05:12;19.90;99.90
25332;DHT22;13284;52.748;13.452;2023-07-22T10:07:42;19.90;99.90
25332;DHT22;13284;52.748;13.452;2023-07-22T10:10:09;19.40;99.90
25332;DHT22;13284;52.748;13.452;2023-07-22T10:12:35;19.30;99.90
25332;DHT22;13284;52.748;13.452;2023-07-22T10:15:02;19.10;99.90
25332;DHT22;13284;52.748;13.452;2023-07-22T10:17:28;19.10;99.90
25332;DHT22;13284;52.748;13.452;2023-07-22T10:19:55;19.10;99.90
25332;DHT22;13284;52.748;13.452;2023-07-22T10:22:21;19.70;99.90
25332;DHT22;13284;52.748;13.452;2023-07-22T10:24:47;19.90;99.90
25332;DHT22;13284;52.748;13.452;2023-07-22T10:27:14;20.40;99.90
25332;DHT22;13284;52.748;13.452;2023-07-22T10:29:42;20.80;99.90
25332;DHT22;13284;52.748;13.452;2023-07-22T10:32:09;20.40;99.90
25332;DHT22;13284;52.748;13.452;2023-07-22T10:34:34;20.10;99.90
25332;DHT22;13284;52.748;13.452;2023-07-22T10:37:00;20.00;99.90
25332;DHT22;13284;52.748;13.452;2023-07-22T10:39:26;20.90;99.90
25332;DHT22;13284;52.748;13.452;2023-07-22T10:42:05;21.70;99.90
25332;DHT22;13284;52.748;13.452;2023-07-22T10:44:32;22.10;99.90
25332;DHT22;13284;52.748;13.452;2023-07-22T10:46:59;22.10;99.90
25332;DHT22;13284;52.748;13.452;2023-07-22T10:49:28;22.30;99.90
25332;DHT22;13284;52.748;13.452;2023-07-22T10:52:07;22.60;99.90
25332;DHT22;13284;52.748;13.452;2023-07-22T10:54:34;22.50;99.90
25332;DHT22;13284;52.748;13.452;2023-07-22T10:59:50;21.80;99.90
25332;DHT22;13284;52.748;13.452;2023-07-22T11:02:29;21.60;99.90
25332;DHT22;13284;52.748;13.452;2023-07-22T11:04:58;21.50;99.90
25332;DHT22;13284;52.748;13.452;2023-07-22T11:07:43;21.20;99.90
25332;DHT22;13284;52.748;13.452;2023-07-22T11:10:16;20.70;99.90
25332;DHT22;13284;52.748;13.452;2023-07-22T11:12:44;20.70;99.90
25332;DHT22;13284;52.748;13.452;2023-07-22T11:15:10;21.10;99.90
25332;DHT22;13284;52.748;13.452;2023-07-22T11:17:37;20.80;99.90
25332;DHT22;13284;52.748;13.452;2023-07-22T11:20:03;20.80;99.90
25332;DHT22;13284;52.748;13.452;2023-07-22T11:22:29;20.40;99.90
25332;DHT22;13284;52.748;13.452;2023-07-22T11:24:55;20.10;99.90
25332;DHT22;13284;52.748;13.452;2023-07-22T11:27:21;20.20;99.90
25332;DHT22;13284;52.748;13.452;2023-07-22T11:29:48;20.10;99.90
25332;DHT22;13284;52.748;13.452;2023-07-22T11:32:18;20.50;99.90
25332;DHT22;13284;52.748;13.452;2023-07-22T11:34:45;20.90;99.90
25332;DHT22;13284;52.748;13.452;2023-07-22T11:37:11;20.90;99.90
25332;DHT22;13284;52.748;13.452;2023-07-22T11:39:36;20.90;99.90
25332;DHT22;13284;52.748;13.452;2023-07-22T11:42:03;20.70;99.90
25332;DHT22;13284;52.748;13.452;2023-07-22T11:44:30;20.80;99.90
25332;DHT22;13284;52.748;13.452;2023-07-22T11:49:30;21.40;99.90
25332;DHT22;13284;52.748;13.452;2023-07-22T11:54:23;21.60;99.90
25332;DHT22;13284;52.748;13.452;2023-07-22T11:56:48;21.80;99.90
25332;DHT22;13284;52.748;13.452;2023-07-22T11:59:14;21.50;99.90
25332;DHT22;13284;52.748;13.452;2023-07-22T12:01:43;21.40;99.90
25332;DHT22;13284;52.748;13.452;2023-07-22T12:04:11;21.20;99.90
25332;DHT22;13284;52.748;13.452;2023-07-22T12:06:37;21.60;99.90
25332;DHT22;13284;52.748;13.452;2023-07-22T12:09:02;22.30;99.90
25332;DHT22;13284;52.748;13.452;2023-07-22T12:11:32;22.40;99.90
25332;DHT22;13284;52.748;13.452;2023-07-22T12:14:12;22.60;99.90
25332;DHT22;13284;52.748;13.452;2023-07-22T12:16:40;22.80;99.90
25332;DHT22;13284;52.748;13.452;2023-07-22T12:19:07;22.00;99.90
25332;DHT22;13284;52.748;13.452;2023-07-22T12:21:32;21.60;99.90
25332;DHT22;13284;52.748;13.452;2023-07-22T12:23:58;21.20;99.90
25332;DHT22;13284;52.748;13.452;2023-07-22T12:26:24;21.10;99.90
25332;DHT22;13284;52.748;13.452;2023-07-22T12:28:50;21.50;99.90
25332;DHT22;13284;52.748;13.452;2023-07-22T12:31:15;21.90;99.90
25332;DHT22;13284;52.748;13.452;2023-07-22T12:33:41;22.10;99.90
25332;DHT22;13284;52.748;13.452;2023-07-22T12:36:07;22.30;99.90
25332;DHT22;13284;52.748;13.452;2023-07-22T12:38:33;21.90;99.90
25332;DHT22;13284;52.748;13.452;2023-07-22T12:40:58;22.00;99.90
25332;DHT22;13284;52.748;13.452;2023-07-22T12:43:24;22.50;99.90
25332;DHT22;13284;52.748;13.452;2023-07-22T12:45:49;22.80;99.90
25332;DHT22;13284;52.748;13.452;2023-07-22T12:48:16;23.20;99.90
25332;DHT22;13284;52.748;13.452;2023-07-22T12:50:41;23.30;99.90
25332;DHT22;13284;52.748;13.452;2023-07-22T12:53:08;23.10;99.90
25332;DHT22;13284;52.748;13.452;2023-07-22T12:55:33;22.80;99.90
25332;DHT22;13284;52.748;13.452;2023-07-22T12:57:59;22.70;99.90
25332;DHT22;13284;52.748;13.452;2023-07-22T13:00:24;22.30;99.90
25332;DHT22;13284;52.748;13.452;2023-07-22T13:02:50;22.00;99.90
25332;DHT22;13284;52.748;13.452;2023-07-22T13:05:15;21.50;99.90
25332;DHT22;13284;52.748;13.452;2023-07-22T13:07:41;21.30;99.90
25332;DHT22;13284;52.748;13.452;2023-07-22T13:10:07;21.20;99.90
25332;DHT22;13284;52.748;13.452;2023-07-22T13:12:36;21.00;99.90
25332;DHT22;13284;52.748;13.452;2023-07-22T13:15:02;22.00;99.90
25332;DHT22;13284;52.748;13.452;2023-07-22T13:17:28;22.40;99.90
25332;DHT22;13284;52.748;13.452;2023-07-22T13:19:53;23.00;99.90
25332;DHT22;13284;52.748;13.452;2023-07-22T13:22:19;23.50;99.90
25332;DHT22;13284;52.748;13.452;2023-07-22T13:24:44;23.60;99.90
25332;DHT22;13284;52.748;13.452;2023-07-22T13:27:10;23.50;99.90
25332;DHT22;13284;52.748;13.452;2023-07-22T13:29:35;23.60;99.90
25332;DHT22;13284;52.748;13.452;2023-07-22T13:32:01;23.20;99.90
25332;DHT22;13284;52.748;13.452;2023-07-22T13:34:26;22.60;99.90
25332;DHT22;13284;52.748;13.452;2023-07-22T13:36:52;22.30;99.90
25332;DHT22;13284;52.748;13.452;2023-07-22T13:39:17;22.10;99.90
25332;DHT22;13284;52.748;13.452;2023-07-22T13:41:43;21.90;99.90
25332;DHT22;13284;52.748;13.452;2023-07-22T13:44:10;21.80;99.90
25332;DHT22;13284;52.748;13.452;2023-07-22T13:46:35;21.60;99.90
25332;DHT22;13284;52.748;13.452;2023-07-22T13:49:01;21.80;99.90
25332;DHT22;13284;52.748;13.452;2023-07-22T13:51:27;22.30;99.90
25332;DHT22;13284;52.748;13.452;2023-07-22T13:53:53;22.30;99.90
25332;DHT22;13284;52.748;13.452;2023-07-22T13:56:20;22.10;99.90
25332;DHT22;13284;52.748;13.452;2023-07-22T13:58:46;22.30;99.90
25332;DHT22;13284;52.748;13.452;2023-07-22T14:01:12;22.40;99.90
25332;DHT22;13284;52.748;13.452;2023-07-22T14:03:38;22.60;99.90
25332;DHT22;13284;52.748;13.452;2023-07-22T14:06:04;22.90;99.90
25332;DHT22;13284;52.748;13.452;2023-07-22T14:08:30;22.80;99.90
25332;DHT22;13284;52.748;13.452;2023-07-22T14:10:55;22.60;99.90
25332;DHT22;13284;52.748;13.452;2023-07-22T14:13:21;22.80;99.90
25332;DHT22;13284;52.748;13.452;2023-07-22T14:15:46;22.50;99.90
25332;DHT22;13284;52.748;13.452;2023-07-22T14:18:12;22.30;99.90
25332;DHT22;13284;52.748;13.452;2023-07-22T14:20:42;22.30;99.90
25332;DHT22;13284;52.748;13.452;2023-07-22T14:23:08;22.30;99.90
25332;DHT22;13284;52.748;13.452;2023-07-22T14:25:33;22.60;99.90
25332;DHT22;13284;52.748;13.452;2023-07-22T14:28:09;22.90;99.90
25332;DHT22;13284;52.748;13.452;2023-07-22T14:30:34;23.10;99.90
25332;DHT22;13284;52.748;13.452;2023-07-22T14:33:00;22.80;99.90
25332;DHT22;13284;52.748;13.452;2023-07-22T14:35:25;22.60;99.90
25332;DHT22;13284;52.748;13.452;2023-07-22T14:37:51;22.60;99.90
25332;DHT22;13284;52.748;13.452;2023-07-22T14:40:17;22.50;99.90
25332;DHT22;13284;52.748;13.452;2023-07-22T14:42:42;22.40;99.90
25332;DHT22;13284;52.748;13.452;2023-07-22T14:45:08;22.10;99.90
25332;DHT22;13284;52.748;13.452;2023-07-22T14:47:34;22.00;99.90
25332;DHT22;13284;52.748;13.452;2023-07-22T14:50:00;22.00;99.90
25332;DHT22;13284;52.748;13.452;2023-07-22T14:52:26;21.80;99.90
25332;DHT22;13284;52.748;13.452;2023-07-22T14:54:51;21.60;99.90
25332;DHT22;13284;52.748;13.452;2023-07-22T14:57:17;21.50;99.90
25332;DHT22;13284;52.748;13.452;2023-07-22T14:59:43;21.40;99.90
25332;DHT22;13284;52.748;13.452;2023-07-22T15:02:08;21.50;99.90
25332;DHT22;13284;52.748;13.452;2023-07-22T15:04:34;21.40;99.90
25332;DHT22;13284;52.748;13.452;2023-07-22T15:07:01;21.40;99.90
25332;DHT22;13284;52.748;13.452;2023-07-22T15:09:26;21.30;99.90
25332;DHT22;13284;52.748;13.452;2023-07-22T15:11:52;21.20;99.90
25332;DHT22;13284;52.748;13.452;2023-07-22T15:14:18;21.00;99.90
25332;DHT22;13284;52.748;13.452;2023-07-22T15:16:43;21.00;99.90
25332;DHT22;13284;52.748;13.452;2023-07-22T15:19:09;20.90;99.90